sensor_id;sensor_type;location;lat;lon;timestamp;pressure;altitude;pressure_sealevel;temperature;humidity
75717;BME280;64333;50.138;14.332;2022-10-19T00:01:56;99093.66;;;12.52;100.00
75717;BME280;64333;50.138;14.332;2022-10-19T00:04:21;99089.50;;;12.48;100.00
75717;BME280;64333;50.138;14.332;2022-10-19T00:06:47;99086.22;;;12.43;100.00
75717;BME280;64333;50.138;14.332;2022-10-19T00:09:16;99083.63;;;12.43;100.00
75717;BME280;64333;50.138;14.332;2022-10-19T00:11:44;99081.00;;;12.45;100.00
75717;BME280;64333;50.138;14.332;2022-10-19T00:14:14;99081.72;;;12.48;100.00
75717;BME280;64333;50.138;14.332;2022-10-19T00:16:40;99082.53;;;12.49;100.00
75717;BME280;64333;50.138;14.332;2022-10-19T00:19:11;99085.94;;;12.51;100.00
75717;BME280;64333;50.138;14.332;2022-10-19T00:21:37;99085.22;;;12.47;100.00
75717;BME280;64333;50.138;14.332;2022-10-19T00:24:04;99086.22;;;12.43;100.00
75717;BME280;64333;50.138;14.332;2022-10-19T00:26:30;99093.09;;;12.44;100.00
75717;BME280;64333;50.138;14.332;2022-10-19T00:28:56;99088.94;;;12.40;100.00
75717;BME280;64333;50.138;14.332;2022-10-19T00:31:22;99096.91;;;12.36;100.00
75717;BME280;64333;50.138;14.332;2022-10-19T00:33:48;99102.19;;;12.33;100.00
75717;BME280;64333;50.138;14.332;2022-10-19T00:38:50;99088.06;;;12.18;100.00
75717;BME280;64333;50.138;14.332;2022-10-19T00:41:17;99083.97;;;12.13;100.00
75717;BME280;64333;50.138;14.332;2022-10-19T00:43:58;99081.75;;;12.02;100.00
75717;BME280;64333;50.138;14.332;2022-10-19T00:46:25;99082.13;;;11.93;100.00
75717;BME280;64333;50.138;14.332;2022-10-19T00:48:54;99076.25;;;11.88;100.00
75717;BME280;64333;50.138;14.332;2022-10-19T00:51:22;99082.78;;;11.75;100.00
75717;BME280;64333;50.138;14.332;2022-10-19T00:53:48;99074.66;;;11.61;100.00
75717;BME280;64333;50.138;14.332;2022-10-19T00:56:14;99079.22;;;11.53;100.00
75717;BME280;64333;50.138;14.332;2022-10-19T00:58:41;99065.84;;;11.41;100.00
75717;BME280;64333;50.138;14.332;2022-10-19T01:01:09;99068.81;;;11.30;100.00
75717;BME280;64333;50.138;14.332;2022-10-19T01:03:37;99060.59;;;11.19;100.00
75717;BME280;64333;50.138;14.332;2022-10-19T01:06:03;99052.31;;;11.10;100.00
75717;BME280;64333;50.138;14.332;2022-10-19T01:08:29;99064.56;;;11.03;100.00
75717;BME280;64333;50.138;14.332;2022-10-19T01:16:35;99054.75;;;10.88;100.00
75717;BME280;64333;50.138;14.332;2022-10-19T01:22:25;99057.59;;;10.79;100.00
75717;BME280;64333;50.138;14.332;2022-10-19T01:24:59;99057.72;;;10.77;100.00
75717;BME280;64333;50.138;14.332;2022-10-19T01:30:38;99035.59;;;10.68;100.00
75717;BME280;64333;50.138;14.332;2022-10-19T01:33:12;99039.19;;;10.64;100.00
75717;BME280;64333;50.138;14.332;2022-10-19T01:41:24;99040.13;;;10.62;100.00
75717;BME280;64333;50.138;14.332;2022-10-19T01:46:39;99043.31;;;10.70;100.00
75717;BME280;64333;50.138;14.332;2022-10-19T01:49:46;99049.97;;;10.77;100.00
75717;BME280;64333;50.138;14.332;2022-10-19T01:52:16;99048.28;;;10.76;100.00
75717;BME280;64333;50.138;14.332;2022-10-19T01:54:47;99042.91;;;10.82;100.00
75717;BME280;64333;50.138;14.332;2022-10-19T01:57:21;99039.44;;;10.82;100.00
75717;BME280;64333;50.138;14.332;2022-10-19T01:59:48;99041.22;;;10.81;100.00
75717;BME280;64333;50.138;14.332;2022-10-19T02:02:16;99044.59;;;10.82;100.00
75717;BME280;64333;50.138;14.332;2022-10-19T02:04:42;99040.97;;;10.88;100.00
75717;BME280;64333;50.138;14.332;2022-10-19T02:07:09;99047.78;;;10.90;100.00
75717;BME280;64333;50.138;14.332;2022-10-19T02:09:35;99041.56;;;10.96;100.00
75717;BME280;64333;50.138;14.332;2022-10-19T02:12:03;99039.03;;;10.94;100.00
75717;BME280;64333;50.138;14.332;2022-10-19T02:14:36;99038.84;;;11.00;100.00
75717;BME280;64333;50.138;14.332;2022-10-19T02:17:08;99030.28;;;10.98;100.00
75717;BME280;64333;50.138;14.332;2022-10-19T02:19:35;99030.75;;;11.09;100.00
75717;BME280;64333;50.138;14.332;2022-10-19T02:22:01;99032.28;;;11.15;100.00
75717;BME280;64333;50.138;14.332;2022-10-19T02:24:27;99046.81;;;11.19;100.00
75717;BME280;64333;50.138;14.332;2022-10-19T02:26:52;99035.41;;;11.24;100.00
75717;BME280;64333;50.138;14.332;2022-10-19T02:29:19;99030.13;;;11.27;100.00
75717;BME280;64333;50.138;14.332;2022-10-19T02:31:45;99034.97;;;11.36;100.00
75717;BME280;64333;50.138;14.332;2022-10-19T02:34:10;99047.81;;;11.39;100.00
75717;BME280;64333;50.138;14.332;2022-10-19T02:36:36;99042.06;;;11.31;100.00
75717;BME280;64333;50.138;14.332;2022-10-19T02:39:02;99043.91;;;11.28;100.00
75717;BME280;64333;50.138;14.332;2022-10-19T02:41:35;99033.91;;;11.17;100.00
75717;BME280;64333;50.138;14.332;2022-10-19T02:44:18;99042.22;;;11.02;100.00
75717;BME280;64333;50.138;14.332;2022-10-19T02:46:49;99042.41;;;10.96;100.00
75717;BME280;64333;50.138;14.332;2022-10-19T02:49:16;99047.78;;;10.90;100.00
75717;BME280;64333;50.138;14.332;2022-10-19T02:51:59;99050.63;;;10.83;100.00
75717;BME280;64333;50.138;14.332;2022-10-19T02:54:26;99047.50;;;10.74;100.00
75717;BME280;64333;50.138;14.332;2022-10-19T02:56:51;99036.72;;;10.60;100.00
75717;BME280;64333;50.138;14.332;2022-10-19T02:59:17;99034.56;;;10.48;100.00
75717;BME280;64333;50.138;14.332;2022-10-19T03:01:42;99037.38;;;10.40;100.00
75717;BME280;64333;50.138;14.332;2022-10-19T03:04:07;99035.03;;;10.33;100.00
75717;BME280;64333;50.138;14.332;2022-10-19T03:06:33;99036.09;;;10.26;100.00
75717;BME280;64333;50.138;14.332;2022-10-19T03:08:58;99035.41;;;10.21;100.00
75717;BME280;64333;50.138;14.332;2022-10-19T03:11:23;99037.34;;;10.13;100.00
75717;BME280;64333;50.138;14.332;2022-10-19T03:13:49;99042.53;;;10.13;100.00
75717;BME280;64333;50.138;14.332;2022-10-19T03:16:14;99040.22;;;10.04;100.00
75717;BME280;64333;50.138;14.332;2022-10-19T03:18:39;99025.06;;;9.92;100.00
75717;BME280;64333;50.138;14.332;2022-10-19T03:21:10;99032.72;;;9.95;100.00
75717;BME280;64333;50.138;14.332;2022-10-19T03:23:36;99033.81;;;9.88;100.00
75717;BME280;64333;50.138;14.332;2022-10-19T03:26:02;99032.13;;;9.87;100.00
75717;BME280;64333;50.138;14.332;2022-10-19T03:28:27;99012.81;;;9.69;100.00
75717;BME280;64333;50.138;14.332;2022-10-19T03:30:53;99026.47;;;9.73;100.00
75717;BME280;64333;50.138;14.332;2022-10-19T03:33:18;99025.63;;;9.74;100.00
75717;BME280;64333;50.138;14.332;2022-10-19T03:35:44;99036.00;;;9.71;100.00
75717;BME280;64333;50.138;14.332;2022-10-19T03:38:09;99035.06;;;9.73;100.00
75717;BME280;64333;50.138;14.332;2022-10-19T03:40:35;99030.03;;;9.70;100.00
75717;BME280;64333;50.138;14.332;2022-10-19T03:43:00;99034.22;;;9.73;100.00
75717;BME280;64333;50.138;14.332;2022-10-19T03:45:26;99041.09;;;9.74;100.00
75717;BME280;64333;50.138;14.332;2022-10-19T03:47:51;99040.97;;;9.78;100.00
75717;BME280;64333;50.138;14.332;2022-10-19T03:50:17;99050.13;;;9.88;100.00
75717;BME280;64333;50.138;14.332;2022-10-19T03:52:43;99043.66;;;10.03;100.00
75717;BME280;64333;50.138;14.332;2022-10-19T03:55:09;99055.69;;;10.05;100.00
75717;BME280;64333;50.138;14.332;2022-10-19T03:57:35;99055.34;;;10.16;100.00
75717;BME280;64333;50.138;14.332;2022-10-19T04:00:01;99059.34;;;10.26;100.00
75717;BME280;64333;50.138;14.332;2022-10-19T04:02:26;99052.91;;;10.39;100.00
75717;BME280;64333;50.138;14.332;2022-10-19T04:04:52;99046.63;;;10.47;100.00
75717;BME280;64333;50.138;14.332;2022-10-19T04:07:17;99048.22;;;10.51;100.00
75717;BME280;64333;50.138;14.332;2022-10-19T04:09:42;99042.13;;;10.54;100.00
75717;BME280;64333;50.138;14.332;2022-10-19T04:12:08;99042.06;;;10.55;100.00
75717;BME280;64333;50.138;14.332;2022-10-19T04:14:34;99035.19;;;10.54;100.00
75717;BME280;64333;50.138;14.332;2022-10-19T04:17:00;99028.38;;;10.52;100.00
75717;BME280;64333;50.138;14.332;2022-10-19T04:19:26;99037.78;;;10.54;100.00
75717;BME280;64333;50.138;14.332;2022-10-19T04:21:51;99026.31;;;10.63;100.00
75717;BME280;64333;50.138;14.332;2022-10-19T04:24:17;99033.97;;;10.66;100.00
75717;BME280;64333;50.138;14.332;2022-10-19T04:26:49;99028.75;;;10.67;100.00
75717;BME280;64333;50.138;14.332;2022-10-19T04:29:17;99034.94;;;10.63;100.00
75717;BME280;64333;50.138;14.332;2022-10-19T04:31:44;99035.91;;;10.59;100.00
75717;BME280;64333;50.138;14.332;2022-10-19T04:34:10;99044.06;;;10.46;100.00
75717;BME280;64333;50.138;14.332;2022-10-19T04:36:36;99049.56;;;10.35;100.00
75717;BME280;64333;50.138;14.332;2022-10-19T04:39:03;99039.44;;;10.29;100.00
75717;BME280;64333;50.138;14.332;2022-10-19T04:41:28;99045.63;;;10.24;100.00
75717;BME280;64333;50.138;14.332;2022-10-19T04:43:56;99044.91;;;10.19;100.00
75717;BME280;64333;50.138;14.332;2022-10-19T04:46:22;99045.94;;;10.15;100.00
75717;BME280;64333;50.138;14.332;2022-10-19T04:48:48;99038.50;;;10.04;100.00
75717;BME280;64333;50.138;14.332;2022-10-19T04:51:14;99030.03;;;9.98;100.00
75717;BME280;64333;50.138;14.332;2022-10-19T04:53:41;99030.28;;;9.90;100.00
75717;BME280;64333;50.138;14.332;2022-10-19T04:56:10;99035.63;;;9.84;100.00
75717;BME280;64333;50.138;14.332;2022-10-19T04:58:36;99034.19;;;9.74;100.00
75717;BME280;64333;50.138;14.332;2022-10-19T05:01:08;99030.94;;;9.68;100.00
75717;BME280;64333;50.138;14.332;2022-10-19T05:03:34;99034.59;;;9.61;100.00
75717;BME280;64333;50.138;14.332;2022-10-19T05:05:59;99040.69;;;9.58;100.00
75717;BME280;64333;50.138;14.332;2022-10-19T05:08:25;99048.63;;;9.51;100.00
75717;BME280;64333;50.138;14.332;2022-10-19T05:10:50;99057.44;;;9.42;100.00
75717;BME280;64333;50.138;14.332;2022-10-19T05:13:15;99051.19;;;9.19;100.00
75717;BME280;64333;50.138;14.332;2022-10-19T05:15:41;99054.44;;;8.93;100.00
75717;BME280;64333;50.138;14.332;2022-10-19T05:18:07;99060.00;;;8.77;100.00
75717;BME280;64333;50.138;14.332;2022-10-19T05:20:32;99057.88;;;8.59;100.00
75717;BME280;64333;50.138;14.332;2022-10-19T05:22:57;99064.03;;;8.52;100.00
75717;BME280;64333;50.138;14.332;2022-10-19T05:25:23;99060.00;;;8.42;100.00
75717;BME280;64333;50.138;14.332;2022-10-19T05:27:52;99056.28;;;8.55;100.00
75717;BME280;64333;50.138;14.332;2022-10-19T05:30:18;99062.34;;;8.51;100.00
75717;BME280;64333;50.138;14.332;2022-10-19T05:32:45;99065.66;;;8.57;100.00
75717;BME280;64333;50.138;14.332;2022-10-19T05:35:11;99062.25;;;8.55;100.00
75717;BME280;64333;50.138;14.332;2022-10-19T05:37:36;99068.31;;;8.53;100.00
75717;BME280;64333;50.138;14.332;2022-10-19T05:40:01;99066.84;;;8.43;100.00
75717;BME280;64333;50.138;14.332;2022-10-19T05:42:27;99066.19;;;8.35;100.00
75717;BME280;64333;50.138;14.332;2022-10-19T05:44:52;99073.94;;;8.33;100.00
75717;BME280;64333;50.138;14.332;2022-10-19T05:47:18;99080.66;;;8.39;100.00
75717;BME280;64333;50.138;14.332;2022-10-19T05:49:43;99082.03;;;8.53;100.00
75717;BME280;64333;50.138;14.332;2022-10-19T05:52:08;99089.22;;;8.76;100.00
75717;BME280;64333;50.138;14.332;2022-10-19T05:54:35;99077.66;;;8.92;100.00
75717;BME280;64333;50.138;14.332;2022-10-19T05:57:00;99090.97;;;9.10;100.00
75717;BME280;64333;50.138;14.332;2022-10-19T05:59:26;99087.06;;;9.28;100.00
75717;BME280;64333;50.138;14.332;2022-10-19T06:01:52;99084.97;;;9.42;100.00
75717;BME280;64333;50.138;14.332;2022-10-19T06:04:17;99089.81;;;9.54;100.00
75717;BME280;64333;50.138;14.332;2022-10-19T06:06:42;99094.72;;;9.63;100.00
75717;BME280;64333;50.138;14.332;2022-10-19T06:09:08;99090.00;;;9.77;100.00
75717;BME280;64333;50.138;14.332;2022-10-19T06:11:38;99092.31;;;9.86;100.00
75717;BME280;64333;50.138;14.332;2022-10-19T06:14:07;99103.19;;;9.97;100.00
75717;BME280;64333;50.138;14.332;2022-10-19T06:16:33;99105.53;;;10.06;100.00
75717;BME280;64333;50.138;14.332;2022-10-19T06:18:59;99099.28;;;10.14;100.00
75717;BME280;64333;50.138;14.332;2022-10-19T06:21:29;99108.56;;;10.20;100.00
75717;BME280;64333;50.138;14.332;2022-10-19T06:24:00;99116.31;;;10.20;100.00
75717;BME280;64333;50.138;14.332;2022-10-19T06:26:31;99107.75;;;10.19;100.00
75717;BME280;64333;50.138;14.332;2022-10-19T06:28:58;99111.78;;;10.28;100.00
75717;BME280;64333;50.138;14.332;2022-10-19T06:31:28;99112.47;;;10.33;100.00
75717;BME280;64333;50.138;14.332;2022-10-19T06:33:54;99118.72;;;10.26;100.00
75717;BME280;64333;50.138;14.332;2022-10-19T06:36:21;99113.16;;;10.39;100.00
75717;BME280;64333;50.138;14.332;2022-10-19T06:38:48;99115.84;;;10.64;99.15
75717;BME280;64333;50.138;14.332;2022-10-19T06:41:13;99121.41;;;10.77;98.77
75717;BME280;64333;50.138;14.332;2022-10-19T06:43:39;99116.78;;;10.88;96.63
75717;BME280;64333;50.138;14.332;2022-10-19T06:46:12;99117.94;;;11.81;94.05
75717;BME280;64333;50.138;14.332;2022-10-19T06:48:58;99115.09;;;14.00;84.33
75717;BME280;64333;50.138;14.332;2022-10-19T06:51:25;99126.09;;;15.16;77.90
75717;BME280;64333;50.138;14.332;2022-10-19T06:53:51;99123.44;;;16.51;74.36
75717;BME280;64333;50.138;14.332;2022-10-19T06:56:17;99127.53;;;17.01;71.39
75717;BME280;64333;50.138;14.332;2022-10-19T06:58:44;99127.47;;;17.02;67.84
75717;BME280;64333;50.138;14.332;2022-10-19T07:01:10;99130.69;;;18.38;66.01
75717;BME280;64333;50.138;14.332;2022-10-19T07:03:37;99136.16;;;18.05;63.63
75717;BME280;64333;50.138;14.332;2022-10-19T07:06:07;99141.75;;;19.24;61.72
75717;BME280;64333;50.138;14.332;2022-10-19T07:08:34;99143.97;;;19.94;56.90
75717;BME280;64333;50.138;14.332;2022-10-19T07:11:03;99154.50;;;20.92;56.47
75717;BME280;64333;50.138;14.332;2022-10-19T07:13:29;99148.88;;;21.33;53.38
75717;BME280;64333;50.138;14.332;2022-10-19T07:15:59;99156.72;;;22.14;51.41
75717;BME280;64333;50.138;14.332;2022-10-19T07:18:26;99152.69;;;22.43;49.78
75717;BME280;64333;50.138;14.332;2022-10-19T07:20:59;99168.81;;;22.94;47.96
75717;BME280;64333;50.138;14.332;2022-10-19T07:23:26;99157.19;;;23.50;46.19
75717;BME280;64333;50.138;14.332;2022-10-19T07:25:54;99152.47;;;23.84;45.13
75717;BME280;64333;50.138;14.332;2022-10-19T07:28:25;99152.81;;;24.41;43.42
75717;BME280;64333;50.138;14.332;2022-10-19T07:30:50;99158.13;;;24.51;43.30
75717;BME280;64333;50.138;14.332;2022-10-19T07:33:16;99170.88;;;24.96;42.36
75717;BME280;64333;50.138;14.332;2022-10-19T07:35:41;99166.13;;;24.90;41.69
75717;BME280;64333;50.138;14.332;2022-10-19T07:38:07;99176.75;;;25.09;40.90
75717;BME280;64333;50.138;14.332;2022-10-19T07:40:33;99174.72;;;25.51;39.90
75717;BME280;64333;50.138;14.332;2022-10-19T07:42:58;99172.50;;;24.28;42.36
75717;BME280;64333;50.138;14.332;2022-10-19T07:45:23;99176.88;;;22.70;44.72
75717;BME280;64333;50.138;14.332;2022-10-19T07:47:49;99182.03;;;22.83;43.56
75717;BME280;64333;50.138;14.332;2022-10-19T07:50:14;99177.25;;;21.17;47.68
75717;BME280;64333;50.138;14.332;2022-10-19T07:52:40;99182.03;;;22.83;44.39
75717;BME280;64333;50.138;14.332;2022-10-19T07:55:05;99173.91;;;24.32;41.75
75717;BME280;64333;50.138;14.332;2022-10-19T07:57:31;99171.09;;;24.54;39.73
75717;BME280;64333;50.138;14.332;2022-10-19T07:59:56;99169.69;;;23.99;40.95
75717;BME280;64333;50.138;14.332;2022-10-19T08:02:22;99176.94;;;23.24;41.40
75717;BME280;64333;50.138;14.332;2022-10-19T08:04:47;99166.28;;;21.70;45.74
75717;BME280;64333;50.138;14.332;2022-10-19T08:07:12;99177.38;;;20.54;48.21
75717;BME280;64333;50.138;14.332;2022-10-19T08:09:38;99182.47;;;19.01;52.30
75717;BME280;64333;50.138;14.332;2022-10-19T08:12:04;99179.50;;;20.85;47.75
75717;BME280;64333;50.138;14.332;2022-10-19T08:14:30;99177.19;;;20.45;49.21
75717;BME280;64333;50.138;14.332;2022-10-19T08:16:55;99186.47;;;20.86;46.40
75717;BME280;64333;50.138;14.332;2022-10-19T08:19:21;99193.69;;;22.35;43.33
75717;BME280;64333;50.138;14.332;2022-10-19T08:21:47;99196.53;;;22.66;41.50
75717;BME280;64333;50.138;14.332;2022-10-19T08:24:15;99190.34;;;23.94;38.95
75717;BME280;64333;50.138;14.332;2022-10-19T08:26:41;99192.47;;;25.11;36.20
75717;BME280;64333;50.138;14.332;2022-10-19T08:29:10;99191.91;;;25.75;34.72
75717;BME280;64333;50.138;14.332;2022-10-19T08:31:36;99198.69;;;26.81;33.14
75717;BME280;64333;50.138;14.332;2022-10-19T08:34:02;99197.03;;;26.70;32.76
75717;BME280;64333;50.138;14.332;2022-10-19T08:36:28;99189.84;;;27.61;31.96
75717;BME280;64333;50.138;14.332;2022-10-19T08:38:55;99194.50;;;26.78;31.24
75717;BME280;64333;50.138;14.332;2022-10-19T08:41:23;99185.88;;;24.96;35.17
75717;BME280;64333;50.138;14.332;2022-10-19T08:49:24;99181.72;;;27.63;30.01
75717;BME280;64333;50.138;14.332;2022-10-19T08:52:13;99181.94;;;27.69;29.93
75717;BME280;64333;50.138;14.332;2022-10-19T08:54:57;99179.16;;;26.26;32.21
75717;BME280;64333;50.138;14.332;2022-10-19T09:00:05;99173.41;;;28.69;29.39
75717;BME280;64333;50.138;14.332;2022-10-19T09:05:34;99186.09;;;29.74;26.21
75717;BME280;64333;50.138;14.332;2022-10-19T09:08:03;99179.47;;;28.28;27.95
75717;BME280;64333;50.138;14.332;2022-10-19T09:10:33;99187.34;;;26.42;31.21
75717;BME280;64333;50.138;14.332;2022-10-19T09:15:45;99187.06;;;29.57;28.16
75717;BME280;64333;50.138;14.332;2022-10-19T09:18:26;99186.56;;;29.12;26.66
75717;BME280;64333;50.138;14.332;2022-10-19T09:20:59;99190.75;;;25.49;31.35
75717;BME280;64333;50.138;14.332;2022-10-19T09:23:33;99182.50;;;25.33;31.70
75717;BME280;64333;50.138;14.332;2022-10-19T09:26:02;99188.59;;;27.73;29.28
75717;BME280;64333;50.138;14.332;2022-10-19T09:28:42;99188.53;;;27.03;29.86
75717;BME280;64333;50.138;14.332;2022-10-19T09:31:14;99187.75;;;27.82;28.51
75717;BME280;64333;50.138;14.332;2022-10-19T09:33:43;99188.50;;;24.86;32.95
75717;BME280;64333;50.138;14.332;2022-10-19T09:36:14;99191.78;;;23.14;36.99
75717;BME280;64333;50.138;14.332;2022-10-19T09:38:39;99187.88;;;21.39;39.76
75717;BME280;64333;50.138;14.332;2022-10-19T09:41:13;99189.97;;;20.49;41.88
75717;BME280;64333;50.138;14.332;2022-10-19T09:43:44;99196.97;;;19.60;43.14
75717;BME280;64333;50.138;14.332;2022-10-19T09:46:24;99193.16;;;18.28;45.81
75717;BME280;64333;50.138;14.332;2022-10-19T09:48:52;99192.72;;;17.02;49.18
75717;BME280;64333;50.138;14.332;2022-10-19T09:51:19;99193.16;;;19.78;44.26
75717;BME280;64333;50.138;14.332;2022-10-19T09:53:52;99196.91;;;24.00;35.55
75717;BME280;64333;50.138;14.332;2022-10-19T09:56:23;99186.69;;;25.26;33.50
75717;BME280;64333;50.138;14.332;2022-10-19T09:58:54;99201.31;;;27.79;28.75
75717;BME280;64333;50.138;14.332;2022-10-19T10:01:33;99191.34;;;25.13;30.60
75717;BME280;64333;50.138;14.332;2022-10-19T10:04:16;99209.66;;;22.44;35.94
75717;BME280;64333;50.138;14.332;2022-10-19T10:06:45;99203.97;;;21.58;38.25
75717;BME280;64333;50.138;14.332;2022-10-19T10:09:23;99205.91;;;20.09;42.94
75717;BME280;64333;50.138;14.332;2022-10-19T10:11:52;99201.72;;;18.46;45.57
75717;BME280;64333;50.138;14.332;2022-10-19T10:14:37;99207.34;;;17.20;48.22
75717;BME280;64333;50.138;14.332;2022-10-19T10:17:15;99205.31;;;16.64;50.19
75717;BME280;64333;50.138;14.332;2022-10-19T10:22:55;99205.63;;;16.08;52.80
75717;BME280;64333;50.138;14.332;2022-10-19T10:25:25;99198.16;;;15.68;54.61
75717;BME280;64333;50.138;14.332;2022-10-19T10:28:19;99196.13;;;15.90;52.95
75717;BME280;64333;50.138;14.332;2022-10-19T10:30:45;99184.97;;;16.05;52.65
75717;BME280;64333;50.138;14.332;2022-10-19T10:33:15;99191.00;;;16.06;52.31
75717;BME280;64333;50.138;14.332;2022-10-19T10:35:46;99190.00;;;16.08;51.60
75717;BME280;64333;50.138;14.332;2022-10-19T10:38:21;99185.72;;;15.90;51.13
75717;BME280;64333;50.138;14.332;2022-10-19T10:40:53;99189.25;;;15.89;50.82
75717;BME280;64333;50.138;14.332;2022-10-19T10:43:30;99187.88;;;15.99;52.36
75717;BME280;64333;50.138;14.332;2022-10-19T10:46:00;99185.66;;;16.24;50.97
75717;BME280;64333;50.138;14.332;2022-10-19T10:48:32;99188.72;;;16.49;50.95
75717;BME280;64333;50.138;14.332;2022-10-19T10:51:00;99194.47;;;17.02;50.09
75717;BME280;64333;50.138;14.332;2022-10-19T10:53:46;99197.59;;;17.39;49.03
75717;BME280;64333;50.138;14.332;2022-10-19T10:56:27;99191.38;;;17.71;48.18
75717;BME280;64333;50.138;14.332;2022-10-19T10:59:09;99193.22;;;19.11;44.19
75717;BME280;64333;50.138;14.332;2022-10-19T11:01:40;99191.56;;;18.26;46.59
75717;BME280;64333;50.138;14.332;2022-10-19T11:04:15;99194.88;;;17.56;47.07
75717;BME280;64333;50.138;14.332;2022-10-19T11:06:51;99188.44;;;16.86;49.62
75717;BME280;64333;50.138;14.332;2022-10-19T11:09:33;99188.66;;;16.66;50.02
75717;BME280;64333;50.138;14.332;2022-10-19T11:12:04;99184.72;;;16.75;50.76
75717;BME280;64333;50.138;14.332;2022-10-19T11:14:44;99198.34;;;17.10;50.03
75717;BME280;64333;50.138;14.332;2022-10-19T11:17:18;99169.81;;;16.92;49.76
75717;BME280;64333;50.138;14.332;2022-10-19T11:19:45;99192.34;;;17.24;48.82
75717;BME280;64333;50.138;14.332;2022-10-19T11:30:33;99183.38;;;17.45;47.71
75717;BME280;64333;50.138;14.332;2022-10-19T11:35:59;99173.38;;;16.91;48.79
75717;BME280;64333;50.138;14.332;2022-10-19T11:43:57;99176.53;;;16.81;48.39
75717;BME280;64333;50.138;14.332;2022-10-19T12:03:59;99171.50;;;17.08;47.05
75717;BME280;64333;50.138;14.332;2022-10-19T12:06:36;99159.53;;;16.89;47.13
75717;BME280;64333;50.138;14.332;2022-10-19T12:14:27;99152.97;;;17.87;45.12
75717;BME280;64333;50.138;14.332;2022-10-19T12:16:57;99159.28;;;16.93;45.27
75717;BME280;64333;50.138;14.332;2022-10-19T12:19:27;99152.06;;;16.52;47.36
75717;BME280;64333;50.138;14.332;2022-10-19T12:22:01;99151.31;;;16.33;47.36
75717;BME280;64333;50.138;14.332;2022-10-19T12:24:29;99149.78;;;15.97;47.94
75717;BME280;64333;50.138;14.332;2022-10-19T12:26:56;99149.19;;;16.57;47.74
75717;BME280;64333;50.138;14.332;2022-10-19T12:29:35;99148.81;;;18.41;42.87
75717;BME280;64333;50.138;14.332;2022-10-19T12:32:04;99145.59;;;18.08;44.00
75717;BME280;64333;50.138;14.332;2022-10-19T12:34:42;99146.75;;;18.18;43.79
75717;BME280;64333;50.138;14.332;2022-10-19T12:45:15;99149.06;;;17.51;42.88
75717;BME280;64333;50.138;14.332;2022-10-19T12:48:18;99147.41;;;16.42;45.28
75717;BME280;64333;50.138;14.332;2022-10-19T12:56:01;99132.03;;;20.15;38.44
75717;BME280;64333;50.138;14.332;2022-10-19T12:58:53;99128.88;;;18.80;40.49
75717;BME280;64333;50.138;14.332;2022-10-19T13:04:27;99130.53;;;17.40;44.49
75717;BME280;64333;50.138;14.332;2022-10-19T13:07:00;99131.09;;;16.85;46.25
75717;BME280;64333;50.138;14.332;2022-10-19T13:09:39;99128.84;;;16.31;47.63
75717;BME280;64333;50.138;14.332;2022-10-19T13:14:58;99121.25;;;15.61;50.80
75717;BME280;64333;50.138;14.332;2022-10-19T13:38:35;99124.59;;;15.63;50.26
75717;BME280;64333;50.138;14.332;2022-10-19T13:41:05;99130.75;;;15.45;51.48
75717;BME280;64333;50.138;14.332;2022-10-19T13:43:48;99134.13;;;14.76;53.32
75717;BME280;64333;50.138;14.332;2022-10-19T14:10:40;99115.38;;;14.70;52.51
75717;BME280;64333;50.138;14.332;2022-10-19T14:13:12;99119.78;;;14.86;52.65
75717;BME280;64333;50.138;14.332;2022-10-19T14:15:38;99102.34;;;15.90;50.36
75717;BME280;64333;50.138;14.332;2022-10-19T14:18:23;99114.44;;;16.56;48.39
75717;BME280;64333;50.138;14.332;2022-10-19T14:21:02;99112.81;;;15.73;50.02
75717;BME280;64333;50.138;14.332;2022-10-19T14:23:31;99106.84;;;14.85;52.96
75717;BME280;64333;50.138;14.332;2022-10-19T14:26:04;99109.41;;;14.49;54.38
75717;BME280;64333;50.138;14.332;2022-10-19T14:28:31;99111.84;;;14.71;54.03
75717;BME280;64333;50.138;14.332;2022-10-19T14:31:03;99111.31;;;14.27;54.57
75717;BME280;64333;50.138;14.332;2022-10-19T14:33:32;99106.13;;;14.07;55.49
75717;BME280;64333;50.138;14.332;2022-10-19T14:35:58;99102.28;;;13.77;55.77
75717;BME280;64333;50.138;14.332;2022-10-19T14:38:28;99115.91;;;13.42;55.28
75717;BME280;64333;50.138;14.332;2022-10-19T14:40:55;99112.47;;;13.42;56.84
75717;BME280;64333;50.138;14.332;2022-10-19T14:43:26;99119.34;;;13.23;56.85
75717;BME280;64333;50.138;14.332;2022-10-19T14:48:30;99106.66;;;13.37;56.05
75717;BME280;64333;50.138;14.332;2022-10-19T14:50:56;99106.53;;;13.18;56.98
75717;BME280;64333;50.138;14.332;2022-10-19T14:56:37;99110.66;;;13.24;57.73
75717;BME280;64333;50.138;14.332;2022-10-19T14:59:32;99105.78;;;13.16;57.56
75717;BME280;64333;50.138;14.332;2022-10-19T15:02:00;99102.13;;;13.00;58.21
75717;BME280;64333;50.138;14.332;2022-10-19T15:04:35;99088.72;;;12.89;58.37
75717;BME280;64333;50.138;14.332;2022-10-19T15:07:02;99098.66;;;12.78;58.71
75717;BME280;64333;50.138;14.332;2022-10-19T15:09:32;99098.94;;;12.49;58.01
75717;BME280;64333;50.138;14.332;2022-10-19T15:12:06;99097.56;;;12.41;58.04
75717;BME280;64333;50.138;14.332;2022-10-19T15:14:33;99104.41;;;12.42;59.34
75717;BME280;64333;50.138;14.332;2022-10-19T15:17:01;99100.22;;;12.39;59.91
75717;BME280;64333;50.138;14.332;2022-10-19T15:27:22;99109.34;;;12.03;64.70
75717;BME280;64333;50.138;14.332;2022-10-19T15:32:50;99096.44;;;11.54;67.19
75717;BME280;64333;50.138;14.332;2022-10-19T15:35:32;99099.97;;;11.52;67.83
75717;BME280;64333;50.138;14.332;2022-10-19T15:40:36;99092.38;;;11.47;67.33
75717;BME280;64333;50.138;14.332;2022-10-19T15:53:54;99087.81;;;11.29;67.81